sensor_id;sensor_type;location;lat;lon;timestamp;P1;durP1;ratioP1;P2;durP2;ratioP2
11443;SDS011;5778;47.856;12.154;2023-04-07T00:02:04;10.07;;;8.80;;
11443;SDS011;5778;47.856;12.154;2023-04-07T00:04:31;11.73;;;9.20;;
11443;SDS011;5778;47.856;12.154;2023-04-07T00:06:58;10.03;;;8.37;;
11443;SDS011;5778;47.856;12.154;2023-04-07T00:09:25;13.20;;;8.83;;
11443;SDS011;5778;47.856;12.154;2023-04-07T00:11:53;12.30;;;8.77;;
11443;SDS011;5778;47.856;12.154;2023-04-07T00:17:13;11.23;;;8.87;;
11443;SDS011;5778;47.856;12.154;2023-04-07T00:19:39;12.20;;;9.10;;
11443;SDS011;5778;47.856;12.154;2023-04-07T00:22:07;11.37;;;8.90;;
11443;SDS011;5778;47.856;12.154;2023-04-07T00:27:25;9.50;;;8.50;;
11443;SDS011;5778;47.856;12.154;2023-04-07T00:29:52;11.27;;;9.60;;
11443;SDS011;5778;47.856;12.154;2023-04-07T00:32:20;11.97;;;9.07;;
11443;SDS011;5778;47.856;12.154;2023-04-07T00:35:04;11.83;;;9.53;;
11443;SDS011;5778;47.856;12.154;2023-04-07T00:37:32;11.20;;;9.57;;
11443;SDS011;5778;47.856;12.154;2023-04-07T00:39:59;10.30;;;9.10;;
11443;SDS011;5778;47.856;12.154;2023-04-07T00:42:27;11.10;;;9.67;;
11443;SDS011;5778;47.856;12.154;2023-04-07T00:48:17;11.67;;;9.57;;
11443;SDS011;5778;47.856;12.154;2023-04-07T00:50:44;10.43;;;9.33;;
11443;SDS011;5778;47.856;12.154;2023-04-07T00:56:33;10.57;;;8.87;;
11443;SDS011;5778;47.856;12.154;2023-04-07T00:59:03;11.07;;;9.57;;
11443;SDS011;5778;47.856;12.154;2023-04-07T01:01:31;10.93;;;9.03;;
11443;SDS011;5778;47.856;12.154;2023-04-07T01:07:30;12.63;;;8.70;;
11443;SDS011;5778;47.856;12.154;2023-04-07T01:10:08;12.13;;;8.80;;
11443;SDS011;5778;47.856;12.154;2023-04-07T01:13:00;12.37;;;8.67;;
11443;SDS011;5778;47.856;12.154;2023-04-07T01:15:33;11.70;;;8.87;;
11443;SDS011;5778;47.856;12.154;2023-04-07T01:18:05;9.37;;;8.37;;
11443;SDS011;5778;47.856;12.154;2023-04-07T01:20:36;11.97;;;9.00;;
11443;SDS011;5778;47.856;12.154;2023-04-07T01:23:08;12.97;;;8.13;;
11443;SDS011;5778;47.856;12.154;2023-04-07T01:25:52;9.83;;;8.47;;
11443;SDS011;5778;47.856;12.154;2023-04-07T01:31:17;9.37;;;8.37;;
11443;SDS011;5778;47.856;12.154;2023-04-07T01:34:00;10.73;;;8.50;;
11443;SDS011;5778;47.856;12.154;2023-04-07T01:36:29;10.63;;;8.67;;
11443;SDS011;5778;47.856;12.154;2023-04-07T01:38:58;11.23;;;8.67;;
11443;SDS011;5778;47.856;12.154;2023-04-07T01:41:25;9.40;;;8.23;;
11443;SDS011;5778;47.856;12.154;2023-04-07T01:43:54;10.07;;;8.30;;
11443;SDS011;5778;47.856;12.154;2023-04-07T01:46:24;10.47;;;8.43;;
11443;SDS011;5778;47.856;12.154;2023-04-07T01:48:51;10.67;;;8.90;;
11443;SDS011;5778;47.856;12.154;2023-04-07T01:51:19;9.63;;;8.27;;
11443;SDS011;5778;47.856;12.154;2023-04-07T01:56:41;12.90;;;9.60;;
11443;SDS011;5778;47.856;12.154;2023-04-07T01:59:08;11.43;;;8.83;;
11443;SDS011;5778;47.856;12.154;2023-04-07T02:01:37;11.03;;;8.90;;
11443;SDS011;5778;47.856;12.154;2023-04-07T02:04:17;11.17;;;9.57;;
11443;SDS011;5778;47.856;12.154;2023-04-07T02:06:52;13.77;;;10.80;;
11443;SDS011;5778;47.856;12.154;2023-04-07T02:09:31;9.83;;;8.07;;
11443;SDS011;5778;47.856;12.154;2023-04-07T02:11:59;10.03;;;8.40;;
11443;SDS011;5778;47.856;12.154;2023-04-07T02:14:34;10.33;;;8.70;;
11443;SDS011;5778;47.856;12.154;2023-04-07T02:17:07;10.20;;;8.47;;
11443;SDS011;5778;47.856;12.154;2023-04-07T02:19:35;13.67;;;9.37;;
11443;SDS011;5778;47.856;12.154;2023-04-07T02:22:03;13.63;;;9.80;;
11443;SDS011;5778;47.856;12.154;2023-04-07T02:24:31;11.80;;;9.60;;
11443;SDS011;5778;47.856;12.154;2023-04-07T02:26:57;11.63;;;9.23;;
11443;SDS011;5778;47.856;12.154;2023-04-07T02:29:26;11.53;;;10.10;;
11443;SDS011;5778;47.856;12.154;2023-04-07T02:31:53;10.77;;;8.87;;
11443;SDS011;5778;47.856;12.154;2023-04-07T02:34:38;10.80;;;9.10;;
11443;SDS011;5778;47.856;12.154;2023-04-07T02:37:05;10.63;;;8.80;;
11443;SDS011;5778;47.856;12.154;2023-04-07T02:39:32;10.43;;;9.13;;
11443;SDS011;5778;47.856;12.154;2023-04-07T02:41:59;11.80;;;9.00;;
11443;SDS011;5778;47.856;12.154;2023-04-07T02:44:32;11.30;;;9.67;;
11443;SDS011;5778;47.856;12.154;2023-04-07T02:47:00;12.83;;;9.87;;
11443;SDS011;5778;47.856;12.154;2023-04-07T02:49:27;12.17;;;8.97;;
11443;SDS011;5778;47.856;12.154;2023-04-07T02:51:56;11.60;;;10.30;;
11443;SDS011;5778;47.856;12.154;2023-04-07T02:54:34;13.37;;;10.33;;
11443;SDS011;5778;47.856;12.154;2023-04-07T02:57:01;11.50;;;9.43;;
11443;SDS011;5778;47.856;12.154;2023-04-07T02:59:28;12.10;;;9.60;;
11443;SDS011;5778;47.856;12.154;2023-04-07T03:01:55;12.50;;;10.07;;
11443;SDS011;5778;47.856;12.154;2023-04-07T03:04:23;11.97;;;10.33;;
11443;SDS011;5778;47.856;12.154;2023-04-07T03:06:50;11.30;;;9.27;;
11443;SDS011;5778;47.856;12.154;2023-04-07T03:09:19;10.17;;;9.10;;
11443;SDS011;5778;47.856;12.154;2023-04-07T03:11:47;12.77;;;9.73;;
11443;SDS011;5778;47.856;12.154;2023-04-07T03:17:27;11.93;;;9.93;;
11443;SDS011;5778;47.856;12.154;2023-04-07T03:19:55;11.43;;;9.30;;
11443;SDS011;5778;47.856;12.154;2023-04-07T03:22:24;13.83;;;10.20;;
11443;SDS011;5778;47.856;12.154;2023-04-07T03:27:48;12.07;;;10.23;;
11443;SDS011;5778;47.856;12.154;2023-04-07T03:30:16;11.90;;;9.50;;
11443;SDS011;5778;47.856;12.154;2023-04-07T03:32:44;13.53;;;10.37;;
11443;SDS011;5778;47.856;12.154;2023-04-07T03:35:12;12.83;;;9.90;;
11443;SDS011;5778;47.856;12.154;2023-04-07T03:37:38;12.03;;;10.37;;
11443;SDS011;5778;47.856;12.154;2023-04-07T03:40:11;11.37;;;9.37;;
11443;SDS011;5778;47.856;12.154;2023-04-07T03:42:39;10.83;;;9.27;;
11443;SDS011;5778;47.856;12.154;2023-04-07T03:45:07;11.50;;;9.40;;
11443;SDS011;5778;47.856;12.154;2023-04-07T03:47:39;11.63;;;9.13;;
11443;SDS011;5778;47.856;12.154;2023-04-07T03:50:07;15.97;;;9.83;;
11443;SDS011;5778;47.856;12.154;2023-04-07T03:52:44;11.73;;;9.43;;
11443;SDS011;5778;47.856;12.154;2023-04-07T03:55:20;11.67;;;9.47;;
11443;SDS011;5778;47.856;12.154;2023-04-07T03:57:52;11.40;;;9.40;;
11443;SDS011;5778;47.856;12.154;2023-04-07T04:00:19;12.03;;;10.07;;
11443;SDS011;5778;47.856;12.154;2023-04-07T04:03:02;11.33;;;9.93;;
11443;SDS011;5778;47.856;12.154;2023-04-07T04:05:33;11.00;;;9.77;;
11443;SDS011;5778;47.856;12.154;2023-04-07T04:08:00;10.80;;;9.30;;
11443;SDS011;5778;47.856;12.154;2023-04-07T04:10:27;14.33;;;10.67;;
11443;SDS011;5778;47.856;12.154;2023-04-07T04:16:07;12.57;;;10.20;;
11443;SDS011;5778;47.856;12.154;2023-04-07T04:18:36;12.50;;;9.70;;
11443;SDS011;5778;47.856;12.154;2023-04-07T04:21:05;11.37;;;9.97;;
11443;SDS011;5778;47.856;12.154;2023-04-07T04:23:44;12.70;;;10.43;;
11443;SDS011;5778;47.856;12.154;2023-04-07T04:26:11;13.17;;;9.93;;
11443;SDS011;5778;47.856;12.154;2023-04-07T04:28:40;11.10;;;9.87;;
11443;SDS011;5778;47.856;12.154;2023-04-07T04:31:09;11.87;;;9.97;;
11443;SDS011;5778;47.856;12.154;2023-04-07T04:33:43;13.03;;;10.17;;
11443;SDS011;5778;47.856;12.154;2023-04-07T04:36:11;14.33;;;10.53;;
11443;SDS011;5778;47.856;12.154;2023-04-07T04:38:38;11.77;;;10.20;;
11443;SDS011;5778;47.856;12.154;2023-04-07T04:41:13;12.03;;;10.77;;
11443;SDS011;5778;47.856;12.154;2023-04-07T04:43:43;14.40;;;10.73;;
11443;SDS011;5778;47.856;12.154;2023-04-07T04:46:17;12.27;;;10.17;;
11443;SDS011;5778;47.856;12.154;2023-04-07T04:48:44;14.00;;;10.83;;
11443;SDS011;5778;47.856;12.154;2023-04-07T04:51:11;12.90;;;11.37;;
11443;SDS011;5778;47.856;12.154;2023-04-07T04:53:53;15.23;;;11.13;;
11443;SDS011;5778;47.856;12.154;2023-04-07T04:56:22;13.33;;;10.73;;
11443;SDS011;5778;47.856;12.154;2023-04-07T04:58:49;11.93;;;10.40;;
11443;SDS011;5778;47.856;12.154;2023-04-07T05:01:26;13.47;;;10.87;;
11443;SDS011;5778;47.856;12.154;2023-04-07T05:04:06;14.30;;;10.57;;
11443;SDS011;5778;47.856;12.154;2023-04-07T05:06:35;13.93;;;10.63;;
11443;SDS011;5778;47.856;12.154;2023-04-07T05:09:07;12.97;;;11.03;;
11443;SDS011;5778;47.856;12.154;2023-04-07T05:11:43;14.17;;;11.40;;
11443;SDS011;5778;47.856;12.154;2023-04-07T05:14:27;14.07;;;11.03;;
11443;SDS011;5778;47.856;12.154;2023-04-07T05:17:03;14.67;;;11.70;;
11443;SDS011;5778;47.856;12.154;2023-04-07T05:19:30;15.20;;;11.30;;
11443;SDS011;5778;47.856;12.154;2023-04-07T05:22:03;13.67;;;11.50;;
11443;SDS011;5778;47.856;12.154;2023-04-07T05:27:28;15.50;;;11.03;;
11443;SDS011;5778;47.856;12.154;2023-04-07T05:30:00;11.63;;;10.43;;
11443;SDS011;5778;47.856;12.154;2023-04-07T05:32:32;12.23;;;10.90;;
11443;SDS011;5778;47.856;12.154;2023-04-07T05:35:18;11.43;;;10.23;;
11443;SDS011;5778;47.856;12.154;2023-04-07T05:37:50;12.33;;;10.50;;
11443;SDS011;5778;47.856;12.154;2023-04-07T05:40:17;12.87;;;10.53;;
11443;SDS011;5778;47.856;12.154;2023-04-07T05:42:45;12.63;;;10.40;;
11443;SDS011;5778;47.856;12.154;2023-04-07T05:45:12;13.60;;;10.93;;
11443;SDS011;5778;47.856;12.154;2023-04-07T05:47:45;14.13;;;10.70;;
11443;SDS011;5778;47.856;12.154;2023-04-07T05:50:17;13.83;;;11.43;;
11443;SDS011;5778;47.856;12.154;2023-04-07T05:52:46;12.97;;;10.07;;
11443;SDS011;5778;47.856;12.154;2023-04-07T05:55:24;12.17;;;10.27;;
11443;SDS011;5778;47.856;12.154;2023-04-07T05:57:51;12.03;;;10.07;;
11443;SDS011;5778;47.856;12.154;2023-04-07T06:00:21;13.73;;;10.57;;
11443;SDS011;5778;47.856;12.154;2023-04-07T06:03:05;13.20;;;11.30;;
11443;SDS011;5778;47.856;12.154;2023-04-07T06:05:41;15.03;;;11.80;;
11443;SDS011;5778;47.856;12.154;2023-04-07T06:08:12;14.30;;;12.20;;
11443;SDS011;5778;47.856;12.154;2023-04-07T06:10:39;13.43;;;11.47;;
11443;SDS011;5778;47.856;12.154;2023-04-07T06:13:08;16.60;;;12.33;;
11443;SDS011;5778;47.856;12.154;2023-04-07T06:15:35;13.90;;;12.03;;
11443;SDS011;5778;47.856;12.154;2023-04-07T06:18:02;16.33;;;13.33;;
11443;SDS011;5778;47.856;12.154;2023-04-07T06:20:30;14.20;;;11.87;;
11443;SDS011;5778;47.856;12.154;2023-04-07T06:23:00;13.20;;;11.23;;
11443;SDS011;5778;47.856;12.154;2023-04-07T06:25:27;13.17;;;11.77;;
11443;SDS011;5778;47.856;12.154;2023-04-07T06:27:54;12.60;;;11.23;;
11443;SDS011;5778;47.856;12.154;2023-04-07T06:30:21;13.47;;;11.47;;
11443;SDS011;5778;47.856;12.154;2023-04-07T06:32:51;13.57;;;11.13;;
11443;SDS011;5778;47.856;12.154;2023-04-07T06:35:17;13.53;;;11.10;;
11443;SDS011;5778;47.856;12.154;2023-04-07T06:37:46;12.33;;;10.93;;
11443;SDS011;5778;47.856;12.154;2023-04-07T06:40:14;12.23;;;10.93;;
11443;SDS011;5778;47.856;12.154;2023-04-07T06:42:40;13.83;;;11.13;;
11443;SDS011;5778;47.856;12.154;2023-04-07T06:45:14;12.80;;;11.00;;
11443;SDS011;5778;47.856;12.154;2023-04-07T06:47:41;11.63;;;10.13;;
11443;SDS011;5778;47.856;12.154;2023-04-07T06:50:08;11.57;;;9.53;;
11443;SDS011;5778;47.856;12.154;2023-04-07T06:52:35;9.30;;;8.40;;
11443;SDS011;5778;47.856;12.154;2023-04-07T06:55:06;9.30;;;8.00;;
11443;SDS011;5778;47.856;12.154;2023-04-07T06:57:34;9.03;;;7.40;;
11443;SDS011;5778;47.856;12.154;2023-04-07T07:00:01;8.80;;;7.67;;
11443;SDS011;5778;47.856;12.154;2023-04-07T07:02:28;9.20;;;8.20;;
11443;SDS011;5778;47.856;12.154;2023-04-07T07:04:57;10.10;;;8.63;;
11443;SDS011;5778;47.856;12.154;2023-04-07T07:07:24;9.10;;;8.20;;
11443;SDS011;5778;47.856;12.154;2023-04-07T07:09:51;10.33;;;8.70;;
11443;SDS011;5778;47.856;12.154;2023-04-07T07:12:19;10.00;;;8.10;;
11443;SDS011;5778;47.856;12.154;2023-04-07T07:14:47;9.50;;;8.50;;
11443;SDS011;5778;47.856;12.154;2023-04-07T07:17:14;11.87;;;8.60;;
11443;SDS011;5778;47.856;12.154;2023-04-07T07:19:41;9.67;;;8.60;;
11443;SDS011;5778;47.856;12.154;2023-04-07T07:22:08;9.77;;;8.77;;
11443;SDS011;5778;47.856;12.154;2023-04-07T07:27:25;13.27;;;11.03;;
11443;SDS011;5778;47.856;12.154;2023-04-07T07:29:52;12.93;;;10.60;;
11443;SDS011;5778;47.856;12.154;2023-04-07T07:32:19;12.33;;;10.30;;
11443;SDS011;5778;47.856;12.154;2023-04-07T07:35:02;12.07;;;10.53;;
11443;SDS011;5778;47.856;12.154;2023-04-07T07:37:29;13.17;;;11.67;;
11443;SDS011;5778;47.856;12.154;2023-04-07T07:39:57;14.33;;;12.13;;
11443;SDS011;5778;47.856;12.154;2023-04-07T07:42:25;13.33;;;11.63;;
11443;SDS011;5778;47.856;12.154;2023-04-07T07:45:04;13.23;;;11.50;;
11443;SDS011;5778;47.856;12.154;2023-04-07T07:47:32;16.40;;;13.20;;
11443;SDS011;5778;47.856;12.154;2023-04-07T07:50:01;15.23;;;12.57;;
11443;SDS011;5778;47.856;12.154;2023-04-07T07:52:29;13.17;;;11.00;;
11443;SDS011;5778;47.856;12.154;2023-04-07T07:54:57;13.17;;;10.83;;
11443;SDS011;5778;47.856;12.154;2023-04-07T07:57:25;10.90;;;9.73;;
11443;SDS011;5778;47.856;12.154;2023-04-07T07:59:52;11.93;;;10.40;;
11443;SDS011;5778;47.856;12.154;2023-04-07T08:02:19;10.73;;;9.63;;
11443;SDS011;5778;47.856;12.154;2023-04-07T08:08:08;10.77;;;9.53;;
11443;SDS011;5778;47.856;12.154;2023-04-07T08:10:35;11.43;;;9.90;;
11443;SDS011;5778;47.856;12.154;2023-04-07T08:13:13;11.23;;;9.70;;
11443;SDS011;5778;47.856;12.154;2023-04-07T08:15:40;10.20;;;8.67;;
11443;SDS011;5778;47.856;12.154;2023-04-07T08:18:07;11.43;;;9.80;;
11443;SDS011;5778;47.856;12.154;2023-04-07T08:20:35;22.37;;;14.37;;
11443;SDS011;5778;47.856;12.154;2023-04-07T08:23:03;16.17;;;11.97;;
11443;SDS011;5778;47.856;12.154;2023-04-07T08:25:30;15.43;;;11.30;;
11443;SDS011;5778;47.856;12.154;2023-04-07T08:27:57;18.57;;;12.87;;
11443;SDS011;5778;47.856;12.154;2023-04-07T08:30:25;11.57;;;9.33;;
11443;SDS011;5778;47.856;12.154;2023-04-07T08:33:04;13.43;;;10.77;;
11443;SDS011;5778;47.856;12.154;2023-04-07T08:35:31;10.83;;;9.73;;
11443;SDS011;5778;47.856;12.154;2023-04-07T08:37:58;10.83;;;9.10;;
11443;SDS011;5778;47.856;12.154;2023-04-07T08:40:27;11.30;;;8.60;;
11443;SDS011;5778;47.856;12.154;2023-04-07T08:42:58;9.57;;;8.13;;
11443;SDS011;5778;47.856;12.154;2023-04-07T08:45:27;7.90;;;7.10;;
11443;SDS011;5778;47.856;12.154;2023-04-07T08:47:55;7.80;;;7.10;;
11443;SDS011;5778;47.856;12.154;2023-04-07T08:50:29;8.27;;;7.33;;
11443;SDS011;5778;47.856;12.154;2023-04-07T08:55:58;7.93;;;7.13;;
11443;SDS011;5778;47.856;12.154;2023-04-07T08:58:27;9.07;;;7.53;;
11443;SDS011;5778;47.856;12.154;2023-04-07T09:00:56;8.80;;;7.40;;
11443;SDS011;5778;47.856;12.154;2023-04-07T09:03:32;11.13;;;7.53;;
11443;SDS011;5778;47.856;12.154;2023-04-07T09:05:59;9.43;;;8.43;;
11443;SDS011;5778;47.856;12.154;2023-04-07T09:08:26;15.33;;;9.87;;
11443;SDS011;5778;47.856;12.154;2023-04-07T09:10:53;10.93;;;8.50;;
11443;SDS011;5778;47.856;12.154;2023-04-07T09:13:24;10.13;;;7.67;;
11443;SDS011;5778;47.856;12.154;2023-04-07T09:15:51;8.40;;;7.17;;
11443;SDS011;5778;47.856;12.154;2023-04-07T09:18:20;7.53;;;6.83;;
11443;SDS011;5778;47.856;12.154;2023-04-07T09:20:53;7.33;;;6.63;;
11443;SDS011;5778;47.856;12.154;2023-04-07T09:26:41;7.70;;;6.70;;
11443;SDS011;5778;47.856;12.154;2023-04-07T09:29:08;9.73;;;7.47;;
11443;SDS011;5778;47.856;12.154;2023-04-07T09:31:44;7.00;;;6.30;;
11443;SDS011;5778;47.856;12.154;2023-04-07T09:37:33;7.37;;;5.50;;
11443;SDS011;5778;47.856;12.154;2023-04-07T09:40:00;5.70;;;5.07;;
11443;SDS011;5778;47.856;12.154;2023-04-07T09:42:28;5.53;;;4.93;;
11443;SDS011;5778;47.856;12.154;2023-04-07T09:44:57;5.20;;;4.70;;
11443;SDS011;5778;47.856;12.154;2023-04-07T09:47:27;5.13;;;4.63;;
11443;SDS011;5778;47.856;12.154;2023-04-07T09:49:55;5.43;;;4.93;;
11443;SDS011;5778;47.856;12.154;2023-04-07T09:52:24;5.50;;;5.00;;
11443;SDS011;5778;47.856;12.154;2023-04-07T09:55:13;5.37;;;4.77;;
11443;SDS011;5778;47.856;12.154;2023-04-07T09:57:41;7.27;;;4.60;;
11443;SDS011;5778;47.856;12.154;2023-04-07T10:00:09;5.13;;;4.63;;
11443;SDS011;5778;47.856;12.154;2023-04-07T10:02:40;5.10;;;4.57;;
11443;SDS011;5778;47.856;12.154;2023-04-07T10:07:35;5.80;;;5.27;;
11443;SDS011;5778;47.856;12.154;2023-04-07T10:10:03;5.17;;;4.67;;
11443;SDS011;5778;47.856;12.154;2023-04-07T10:12:34;4.70;;;4.20;;
11443;SDS011;5778;47.856;12.154;2023-04-07T10:15:03;5.97;;;4.33;;
11443;SDS011;5778;47.856;12.154;2023-04-07T10:17:31;5.30;;;4.80;;
11443;SDS011;5778;47.856;12.154;2023-04-07T10:19:59;4.87;;;4.43;;
11443;SDS011;5778;47.856;12.154;2023-04-07T10:22:27;6.60;;;4.40;;
11443;SDS011;5778;47.856;12.154;2023-04-07T10:24:56;5.70;;;5.20;;
11443;SDS011;5778;47.856;12.154;2023-04-07T10:27:28;5.20;;;4.70;;
11443;SDS011;5778;47.856;12.154;2023-04-07T10:29:59;5.93;;;5.00;;
11443;SDS011;5778;47.856;12.154;2023-04-07T10:32:28;4.80;;;4.40;;
11443;SDS011;5778;47.856;12.154;2023-04-07T10:34:59;5.30;;;4.77;;
11443;SDS011;5778;47.856;12.154;2023-04-07T10:37:26;4.70;;;4.30;;
11443;SDS011;5778;47.856;12.154;2023-04-07T10:42:57;12.83;;;10.13;;
11443;SDS011;5778;47.856;12.154;2023-04-07T10:48:20;5.93;;;4.70;;
11443;SDS011;5778;47.856;12.154;2023-04-07T10:57:09;5.60;;;5.00;;
11443;SDS011;5778;47.856;12.154;2023-04-07T10:59:39;5.33;;;4.83;;
11443;SDS011;5778;47.856;12.154;2023-04-07T11:05:00;21.03;;;15.13;;
11443;SDS011;5778;47.856;12.154;2023-04-07T11:07:43;6.07;;;5.43;;
11443;SDS011;5778;47.856;12.154;2023-04-07T11:10:13;12.77;;;9.90;;
11443;SDS011;5778;47.856;12.154;2023-04-07T11:12:40;11.43;;;8.70;;
11443;SDS011;5778;47.856;12.154;2023-04-07T11:15:17;20.33;;;13.83;;
11443;SDS011;5778;47.856;12.154;2023-04-07T11:17:47;6.80;;;4.87;;
11443;SDS011;5778;47.856;12.154;2023-04-07T11:20:39;4.43;;;4.03;;
11443;SDS011;5778;47.856;12.154;2023-04-07T11:23:11;7.33;;;5.90;;
11443;SDS011;5778;47.856;12.154;2023-04-07T11:25:40;7.93;;;6.83;;
11443;SDS011;5778;47.856;12.154;2023-04-07T11:28:08;5.07;;;4.57;;
11443;SDS011;5778;47.856;12.154;2023-04-07T11:30:37;5.17;;;4.67;;
11443;SDS011;5778;47.856;12.154;2023-04-07T11:33:07;4.90;;;4.50;;
11443;SDS011;5778;47.856;12.154;2023-04-07T11:35:34;8.37;;;7.57;;
11443;SDS011;5778;47.856;12.154;2023-04-07T11:38:01;4.53;;;4.13;;
11443;SDS011;5778;47.856;12.154;2023-04-07T11:40:32;6.97;;;6.30;;
11443;SDS011;5778;47.856;12.154;2023-04-07T11:43:14;5.90;;;5.33;;
11443;SDS011;5778;47.856;12.154;2023-04-07T11:45:42;9.67;;;7.40;;
11443;SDS011;5778;47.856;12.154;2023-04-07T11:48:26;4.63;;;4.23;;
11443;SDS011;5778;47.856;12.154;2023-04-07T11:50:54;9.70;;;8.70;;
11443;SDS011;5778;47.856;12.154;2023-04-07T11:56:23;4.40;;;4.00;;
11443;SDS011;5778;47.856;12.154;2023-04-07T11:58:52;4.10;;;3.70;;
11443;SDS011;5778;47.856;12.154;2023-04-07T12:01:20;4.10;;;3.70;;
11443;SDS011;5778;47.856;12.154;2023-04-07T12:03:57;4.00;;;3.60;;
11443;SDS011;5778;47.856;12.154;2023-04-07T12:06:26;4.53;;;4.13;;
11443;SDS011;5778;47.856;12.154;2023-04-07T12:08:55;4.57;;;3.90;;
11443;SDS011;5778;47.856;12.154;2023-04-07T12:11:21;4.43;;;4.13;;
11443;SDS011;5778;47.856;12.154;2023-04-07T12:13:49;4.20;;;3.80;;
11443;SDS011;5778;47.856;12.154;2023-04-07T12:16:16;5.20;;;3.90;;
11443;SDS011;5778;47.856;12.154;2023-04-07T12:18:43;3.77;;;3.40;;
11443;SDS011;5778;47.856;12.154;2023-04-07T12:21:12;4.63;;;3.77;;
11443;SDS011;5778;47.856;12.154;2023-04-07T12:23:40;3.93;;;3.37;;
11443;SDS011;5778;47.856;12.154;2023-04-07T12:26:07;4.87;;;4.23;;
11443;SDS011;5778;47.856;12.154;2023-04-07T12:28:35;3.67;;;3.37;;
11443;SDS011;5778;47.856;12.154;2023-04-07T12:31:03;3.90;;;3.60;;
11443;SDS011;5778;47.856;12.154;2023-04-07T12:36:34;4.50;;;3.43;;
11443;SDS011;5778;47.856;12.154;2023-04-07T12:39:01;3.63;;;3.33;;
11443;SDS011;5778;47.856;12.154;2023-04-07T12:41:28;4.30;;;3.60;;
11443;SDS011;5778;47.856;12.154;2023-04-07T12:44:09;3.77;;;3.47;;
11443;SDS011;5778;47.856;12.154;2023-04-07T12:46:36;4.57;;;4.20;;
11443;SDS011;5778;47.856;12.154;2023-04-07T12:49:03;4.30;;;3.90;;
11443;SDS011;5778;47.856;12.154;2023-04-07T12:51:30;4.07;;;3.70;;
11443;SDS011;5778;47.856;12.154;2023-04-07T12:54:17;3.97;;;3.30;;
11443;SDS011;5778;47.856;12.154;2023-04-07T12:56:44;4.17;;;3.50;;
11443;SDS011;5778;47.856;12.154;2023-04-07T12:59:12;4.10;;;3.70;;
11443;SDS011;5778;47.856;12.154;2023-04-07T13:01:39;3.97;;;3.57;;
11443;SDS011;5778;47.856;12.154;2023-04-07T13:04:07;4.50;;;4.07;;
11443;SDS011;5778;47.856;12.154;2023-04-07T13:06:35;3.70;;;3.40;;
11443;SDS011;5778;47.856;12.154;2023-04-07T13:09:02;4.30;;;3.90;;
11443;SDS011;5778;47.856;12.154;2023-04-07T13:11:31;3.83;;;3.53;;
11443;SDS011;5778;47.856;12.154;2023-04-07T13:16:49;4.03;;;3.73;;
11443;SDS011;5778;47.856;12.154;2023-04-07T13:19:16;3.80;;;3.50;;
11443;SDS011;5778;47.856;12.154;2023-04-07T13:21:43;3.50;;;3.20;;
11443;SDS011;5778;47.856;12.154;2023-04-07T13:24:10;4.10;;;3.70;;
11443;SDS011;5778;47.856;12.154;2023-04-07T13:26:38;4.10;;;3.70;;
11443;SDS011;5778;47.856;12.154;2023-04-07T13:29:05;4.07;;;3.63;;
11443;SDS011;5778;47.856;12.154;2023-04-07T13:31:32;4.20;;;3.90;;
11443;SDS011;5778;47.856;12.154;2023-04-07T13:33:59;3.73;;;3.40;;
11443;SDS011;5778;47.856;12.154;2023-04-07T13:36:25;10.07;;;8.97;;
11443;SDS011;5778;47.856;12.154;2023-04-07T13:38:52;4.90;;;3.90;;
11443;SDS011;5778;47.856;12.154;2023-04-07T13:41:21;3.50;;;3.20;;
11443;SDS011;5778;47.856;12.154;2023-04-07T13:43:53;3.70;;;3.40;;
11443;SDS011;5778;47.856;12.154;2023-04-07T13:46:20;3.73;;;3.40;;
11443;SDS011;5778;47.856;12.154;2023-04-07T13:48:47;4.47;;;4.17;;
11443;SDS011;5778;47.856;12.154;2023-04-07T13:51:15;3.93;;;3.63;;
11443;SDS011;5778;47.856;12.154;2023-04-07T13:53:45;4.80;;;4.00;;
11443;SDS011;5778;47.856;12.154;2023-04-07T13:56:12;3.97;;;3.20;;
11443;SDS011;5778;47.856;12.154;2023-04-07T13:58:38;4.53;;;4.20;;
11443;SDS011;5778;47.856;12.154;2023-04-07T14:01:07;4.33;;;3.90;;
11443;SDS011;5778;47.856;12.154;2023-04-07T14:03:36;4.80;;;3.80;;
11443;SDS011;5778;47.856;12.154;2023-04-07T14:06:03;4.33;;;3.97;;
11443;SDS011;5778;47.856;12.154;2023-04-07T14:08:30;4.33;;;4.03;;
11443;SDS011;5778;47.856;12.154;2023-04-07T14:10:57;4.17;;;3.43;;
11443;SDS011;5778;47.856;12.154;2023-04-07T14:13:24;4.17;;;3.80;;
11443;SDS011;5778;47.856;12.154;2023-04-07T14:15:51;3.70;;;3.40;;
11443;SDS011;5778;47.856;12.154;2023-04-07T14:18:20;4.33;;;3.80;;
11443;SDS011;5778;47.856;12.154;2023-04-07T14:20:47;4.07;;;3.77;;
11443;SDS011;5778;47.856;12.154;2023-04-07T14:23:16;3.63;;;3.33;;
11443;SDS011;5778;47.856;12.154;2023-04-07T14:25:43;3.80;;;3.50;;
11443;SDS011;5778;47.856;12.154;2023-04-07T14:28:10;4.00;;;3.60;;
11443;SDS011;5778;47.856;12.154;2023-04-07T14:30:37;4.47;;;3.53;;
11443;SDS011;5778;47.856;12.154;2023-04-07T14:33:17;4.30;;;3.90;;
11443;SDS011;5778;47.856;12.154;2023-04-07T14:35:46;4.40;;;3.90;;
11443;SDS011;5778;47.856;12.154;2023-04-07T14:38:13;4.43;;;4.03;;
11443;SDS011;5778;47.856;12.154;2023-04-07T14:40:40;4.50;;;4.10;;
11443;SDS011;5778;47.856;12.154;2023-04-07T14:43:14;4.37;;;3.50;;
11443;SDS011;5778;47.856;12.154;2023-04-07T14:45:41;3.70;;;3.30;;
11443;SDS011;5778;47.856;12.154;2023-04-07T14:48:08;3.53;;;3.10;;
11443;SDS011;5778;47.856;12.154;2023-04-07T14:50:35;3.40;;;3.10;;
11443;SDS011;5778;47.856;12.154;2023-04-07T14:56:02;4.17;;;3.47;;
11443;SDS011;5778;47.856;12.154;2023-04-07T14:58:30;3.17;;;2.97;;
11443;SDS011;5778;47.856;12.154;2023-04-07T15:00:57;3.57;;;3.27;;
11443;SDS011;5778;47.856;12.154;2023-04-07T15:03:24;5.20;;;3.20;;
11443;SDS011;5778;47.856;12.154;2023-04-07T15:05:50;3.50;;;3.20;;
11443;SDS011;5778;47.856;12.154;2023-04-07T15:08:17;3.90;;;3.50;;
11443;SDS011;5778;47.856;12.154;2023-04-07T15:10:46;3.57;;;3.20;;
11443;SDS011;5778;47.856;12.154;2023-04-07T15:13:24;3.63;;;3.33;;
11443;SDS011;5778;47.856;12.154;2023-04-07T15:15:51;3.80;;;3.50;;
11443;SDS011;5778;47.856;12.154;2023-04-07T15:18:18;3.40;;;3.20;;
11443;SDS011;5778;47.856;12.154;2023-04-07T15:20:44;3.50;;;3.20;;
11443;SDS011;5778;47.856;12.154;2023-04-07T15:23:19;3.63;;;3.33;;
11443;SDS011;5778;47.856;12.154;2023-04-07T15:25:47;3.67;;;3.37;;
11443;SDS011;5778;47.856;12.154;2023-04-07T15:28:20;3.73;;;3.43;;
11443;SDS011;5778;47.856;12.154;2023-04-07T15:30:47;4.30;;;3.63;;
11443;SDS011;5778;47.856;12.154;2023-04-07T15:33:14;3.60;;;3.30;;
11443;SDS011;5778;47.856;12.154;2023-04-07T15:35:41;4.23;;;3.50;;
11443;SDS011;5778;47.856;12.154;2023-04-07T15:38:08;3.80;;;3.50;;
11443;SDS011;5778;47.856;12.154;2023-04-07T15:40:35;4.97;;;4.00;;
11443;SDS011;5778;47.856;12.154;2023-04-07T15:43:07;4.10;;;3.80;;
11443;SDS011;5778;47.856;12.154;2023-04-07T15:45:38;4.00;;;3.60;;
11443;SDS011;5778;47.856;12.154;2023-04-07T15:48:06;3.83;;;3.53;;
11443;SDS011;5778;47.856;12.154;2023-04-07T15:50:33;4.33;;;3.27;;
11443;SDS011;5778;47.856;12.154;2023-04-07T15:53:10;4.20;;;3.30;;
11443;SDS011;5778;47.856;12.154;2023-04-07T15:55:36;3.97;;;3.57;;
11443;SDS011;5778;47.856;12.154;2023-04-07T15:58:04;3.57;;;3.27;;
11443;SDS011;5778;47.856;12.154;2023-04-07T16:00:33;3.67;;;3.37;;
11443;SDS011;5778;47.856;12.154;2023-04-07T16:03:01;4.07;;;3.67;;
11443;SDS011;5778;47.856;12.154;2023-04-07T16:05:28;3.80;;;3.50;;
11443;SDS011;5778;47.856;12.154;2023-04-07T16:07:55;4.00;;;3.70;;
11443;SDS011;5778;47.856;12.154;2023-04-07T16:10:22;4.20;;;3.80;;
11443;SDS011;5778;47.856;12.154;2023-04-07T16:12:56;5.17;;;3.97;;